Time;durP1;ratioP1;P1;durP2;ratioP2;P2;SDS_P1;SDS_P2;PMS_P1;PMS_P2;Temp;Humidity;BMP_temperature;BMP_pressure;BME280_temperature;BME280_humidity;BME280_pressure;Samples;Min_cycle;Max_cycle;Signal;HPM_P1;HPM_P2
2021/06/24 00:01:06;;;;;;;3.35;1.92;;;;;;;;;;5034638;28;20045;-67
2021/06/24 00:03:32;;;;;;;3.10;1.95;;;;;;;;;;5032098;28;20029;-68
2021/06/24 00:05:58;;;;;;;4.35;2.00;;;;;;;;;;5028542;28;20025;-67
2021/06/24 00:08:24;;;;;;;3.65;2.00;;;;;;;;;;5028035;28;20021;-68
2021/06/24 00:10:50;;;;;;;3.58;1.92;;;;;;;;;;5031017;28;20440;-66
2021/06/24 00:13:15;;;;;;;4.18;2.33;;;;;;;;;;5028127;28;20204;-66
2021/06/24 00:15:41;;;;;;;3.97;2.40;;;;;;;;;;5026230;28;20433;-68
2021/06/24 00:18:07;;;;;;;3.60;2.30;;;;;;;;;;5038594;28;20180;-67
2021/06/24 00:20:32;;;;;;;3.08;2.30;;;;;;;;;;5042292;28;20028;-67
2021/06/24 00:22:57;;;;;;;3.95;2.17;;;;;;;;;;5038352;28;20510;-68
2021/06/24 00:25:22;;;;;;;3.08;2.10;;;;;;;;;;5040077;28;20080;-66
2021/06/24 00:27:48;;;;;;;3.28;2.22;;;;;;;;;;5035226;28;20438;-67
2021/06/24 00:30:13;;;;;;;4.10;2.65;;;;;;;;;;5044331;28;20457;-67
2021/06/24 00:32:39;;;;;;;4.63;2.90;;;;;;;;;;5029458;28;20112;-68
2021/06/24 00:35:05;;;;;;;4.05;2.88;;;;;;;;;;5031651;28;20018;-66
2021/06/24 00:37:31;;;;;;;4.05;2.97;;;;;;;;;;5034699;28;20053;-66
2021/06/24 00:39:56;;;;;;;5.72;2.50;;;;;;;;;;5031719;28;20029;-66
2021/06/24 00:42:22;;;;;;;5.03;2.90;;;;;;;;;;5034878;28;20052;-68
2021/06/24 00:44:48;;;;;;;5.97;2.80;;;;;;;;;;5028867;28;20063;-67
2021/06/24 00:47:13;;;;;;;5.53;2.83;;;;;;;;;;5036932;28;20085;-66
2021/06/24 00:49:38;;;;;;;4.05;2.63;;;;;;;;;;5029888;28;20036;-67
2021/06/24 00:52:03;;;;;;;4.05;2.88;;;;;;;;;;5039831;28;20021;-66
2021/06/24 00:54:29;;;;;;;6.68;3.40;;;;;;;;;;5027909;28;20116;-68
2021/06/24 00:56:54;;;;;;;5.43;2.95;;;;;;;;;;5035049;28;20069;-67
2021/06/24 00:59:19;;;;;;;4.32;2.92;;;;;;;;;;5032991;28;20053;-67
2021/06/24 01:01:44;;;;;;;4.43;3.08;;;;;;;;;;5025911;28;20112;-67
2021/06/24 01:04:10;;;;;;;7.10;2.55;;;;;;;;;;5025027;28;20459;-67
2021/06/24 01:06:35;;;;;;;4.65;2.45;;;;;;;;;;5050631;28;20453;-67
2021/06/24 01:09:00;;;;;;;3.53;2.63;;;;;;;;;;5031292;28;20056;-68
2021/06/24 01:11:26;;;;;;;4.10;2.67;;;;;;;;;;5031494;28;20017;-67
2021/06/24 01:13:52;;;;;;;4.50;2.55;;;;;;;;;;5038270;28;20021;-67
2021/06/24 01:16:17;;;;;;;3.45;2.20;;;;;;;;;;5030084;28;20552;-67
2021/06/24 01:18:42;;;;;;;3.92;2.20;;;;;;;;;;5038501;28;20032;-67
2021/06/24 01:21:08;;;;;;;2.90;2.10;;;;;;;;;;5034340;28;20025;-67
2021/06/24 01:23:40;;;;;;;2.83;2.03;;;;;;;;;;5032470;28;20179;-67
2021/06/24 01:26:06;;;;;;;3.45;2.10;;;;;;;;;;5022413;28;20022;-67
2021/06/24 01:28:31;;;;;;;3.42;2.03;;;;;;;;;;5029535;28;20032;-67
2021/06/24 01:30:56;;;;;;;3.65;2.00;;;;;;;;;;5036080;28;20025;-67
2021/06/24 01:33:23;;;;;;;2.60;1.77;;;;;;;;;;5044219;28;20052;-67
2021/06/24 01:35:48;;;;;;;4.78;2.17;;;;;;;;;;5037947;28;20014;-67
2021/06/24 01:38:14;;;;;;;3.67;1.75;;;;;;;;;;5028521;28;20044;-69
2021/06/24 01:40:39;;;;;;;3.40;1.80;;;;;;;;;;5029949;28;20400;-68
2021/06/24 01:43:04;;;;;;;2.65;1.52;;;;;;;;;;5035438;28;20301;-67
2021/06/24 01:45:30;;;;;;;1.83;1.35;;;;;;;;;;5033034;28;20021;-67
2021/06/24 01:47:55;;;;;;;3.65;1.88;;;;;;;;;;5028592;28;20754;-68
2021/06/24 01:50:21;;;;;;;3.03;1.70;;;;;;;;;;5036059;28;20018;-68
2021/06/24 01:52:46;;;;;;;4.38;1.90;;;;;;;;;;5030102;28;20038;-67
2021/06/24 01:55:12;;;;;;;3.35;1.73;;;;;;;;;;5032040;28;20059;-67
2021/06/24 01:57:38;;;;;;;3.38;1.88;;;;;;;;;;5029866;28;20121;-68
2021/06/24 02:00:10;;;;;;;3.45;1.80;;;;;;;;;;5027345;28;20044;-68
2021/06/24 02:02:36;;;;;;;3.10;1.77;;;;;;;;;;5036450;28;20060;-67
2021/06/24 02:05:01;;;;;;;2.90;1.88;;;;;;;;;;5041355;28;20480;-67
2021/06/24 02:07:26;;;;;;;3.15;1.63;;;;;;;;;;5031024;28;20033;-68
2021/06/24 02:09:51;;;;;;;3.63;2.05;;;;;;;;;;5038938;28;20419;-68
2021/06/24 02:12:17;;;;;;;4.57;1.98;;;;;;;;;;5042073;28;20121;-67
2021/06/24 02:14:42;;;;;;;3.58;1.88;;;;;;;;;;5042128;28;20025;-66
2021/06/24 02:17:07;;;;;;;3.17;1.98;;;;;;;;;;5031973;28;20028;-67
2021/06/24 02:19:32;;;;;;;5.90;1.85;;;;;;;;;;5027743;28;20100;-68
2021/06/24 02:21:57;;;;;;;4.80;2.00;;;;;;;;;;5037212;28;20427;-67
2021/06/24 02:24:22;;;;;;;2.70;1.67;;;;;;;;;;5037789;28;20025;-67
2021/06/24 02:26:48;;;;;;;5.50;1.98;;;;;;;;;;5030100;28;20048;-67
2021/06/24 02:29:13;;;;;;;3.17;1.80;;;;;;;;;;5027810;28;20025;-67
2021/06/24 02:31:38;;;;;;;3.38;1.85;;;;;;;;;;5036018;28;20083;-67
2021/06/24 02:34:04;;;;;;;3.25;1.80;;;;;;;;;;5039540;28;20029;-68
2021/06/24 02:36:30;;;;;;;2.50;1.70;;;;;;;;;;5036539;28;20098;-67
2021/06/24 02:38:55;;;;;;;3.35;1.67;;;;;;;;;;5029771;28;20025;-68
2021/06/24 02:41:20;;;;;;;3.15;1.40;;;;;;;;;;5028965;28;20053;-66
2021/06/24 02:43:45;;;;;;;2.08;1.30;;;;;;;;;;5028446;28;20029;-66
2021/06/24 02:46:10;;;;;;;2.50;1.60;;;;;;;;;;5037477;28;20017;-67
2021/06/24 02:48:36;;;;;;;2.13;1.40;;;;;;;;;;5031475;28;20037;-67
2021/06/24 02:51:01;;;;;;;2.97;1.65;;;;;;;;;;5028572;28;20355;-67
2021/06/24 02:53:26;;;;;;;2.38;1.60;;;;;;;;;;5028142;28;20029;-66
2021/06/24 02:55:51;;;;;;;2.85;1.50;;;;;;;;;;5029226;28;20213;-68
2021/06/24 02:58:17;;;;;;;2.95;1.50;;;;;;;;;;5042172;28;20036;-67
2021/06/24 03:00:42;;;;;;;3.10;1.38;;;;;;;;;;5037056;28;20563;-67
2021/06/24 03:03:07;;;;;;;2.72;1.40;;;;;;;;;;5027724;28;20445;-67
2021/06/24 03:05:32;;;;;;;2.15;1.38;;;;;;;;;;5028285;28;20044;-67
2021/06/24 03:07:58;;;;;;;3.05;1.35;;;;;;;;;;5027114;28;20044;-67
2021/06/24 03:10:24;;;;;;;2.05;1.30;;;;;;;;;;5028788;28;20029;-67
2021/06/24 03:12:49;;;;;;;2.88;1.60;;;;;;;;;;5028192;28;20029;-67
2021/06/24 03:15:15;;;;;;;2.10;1.60;;;;;;;;;;5027321;28;20017;-68
2021/06/24 03:17:40;;;;;;;1.48;1.23;;;;;;;;;;5036142;28;20816;-66
2021/06/24 03:20:06;;;;;;;2.25;1.38;;;;;;;;;;5021939;28;20026;-67
2021/06/24 03:22:31;;;;;;;1.90;1.33;;;;;;;;;;5027203;28;20038;-67
2021/06/24 03:24:59;;;;;;;2.28;1.52;;;;;;;;;;5029090;28;20029;-67
2021/06/24 03:27:24;;;;;;;2.08;1.40;;;;;;;;;;5034385;28;20063;-67
2021/06/24 03:29:49;;;;;;;5.25;1.33;;;;;;;;;;5028719;28;20067;-67
2021/06/24 03:32:14;;;;;;;1.88;1.40;;;;;;;;;;5022683;28;20094;-67
2021/06/24 03:34:39;;;;;;;4.43;1.50;;;;;;;;;;5035166;28;20136;-67
2021/06/24 03:37:05;;;;;;;2.45;1.20;;;;;;;;;;5033835;28;20032;-67
2021/06/24 03:39:30;;;;;;;2.53;1.58;;;;;;;;;;5032270;28;20043;-67
2021/06/24 03:41:55;;;;;;;4.32;2.45;;;;;;;;;;5040250;28;20258;-68
2021/06/24 03:44:20;;;;;;;2.72;1.60;;;;;;;;;;5043695;28;20029;-67
2021/06/24 03:46:45;;;;;;;2.80;1.70;;;;;;;;;;5034743;28;20036;-67
2021/06/24 03:49:11;;;;;;;1.98;1.52;;;;;;;;;;5028966;28;20465;-68
2021/06/24 03:51:36;;;;;;;4.30;1.50;;;;;;;;;;5028163;28;20079;-67
2021/06/24 03:54:02;;;;;;;2.60;1.48;;;;;;;;;;5047692;28;20048;-67
2021/06/24 03:56:27;;;;;;;2.38;1.42;;;;;;;;;;5031978;28;20022;-67
2021/06/24 03:58:52;;;;;;;5.57;1.30;;;;;;;;;;5028046;28;20034;-67
2021/06/24 04:01:17;;;;;;;2.45;1.50;;;;;;;;;;5028233;28;20484;-68
2021/06/24 04:03:43;;;;;;;3.65;1.50;;;;;;;;;;5025575;28;20026;-67
2021/06/24 04:06:08;;;;;;;1.88;1.27;;;;;;;;;;5035018;28;20024;-67
2021/06/24 04:08:33;;;;;;;3.13;1.40;;;;;;;;;;5023628;28;20033;-67
2021/06/24 04:10:59;;;;;;;3.08;1.58;;;;;;;;;;5040171;28;20094;-67
2021/06/24 04:13:24;;;;;;;2.53;1.60;;;;;;;;;;5029052;28;20337;-67
2021/06/24 04:15:49;;;;;;;2.57;1.50;;;;;;;;;;5031762;28;20111;-68
2021/06/24 04:18:14;;;;;;;1.83;1.50;;;;;;;;;;5035996;28;20276;-67
2021/06/24 04:20:39;;;;;;;1.90;1.35;;;;;;;;;;5023795;28;20452;-67
2021/06/24 04:23:05;;;;;;;1.83;1.13;;;;;;;;;;5028798;28;20259;-67
2021/06/24 04:25:30;;;;;;;5.25;1.50;;;;;;;;;;5027232;28;20405;-67
2021/06/24 04:27:55;;;;;;;1.60;0.90;;;;;;;;;;5026380;28;20022;-67
2021/06/24 04:30:21;;;;;;;3.00;1.10;;;;;;;;;;5029427;28;20017;-67
2021/06/24 04:32:47;;;;;;;2.50;1.13;;;;;;;;;;5034021;28;20025;-66
2021/06/24 04:35:12;;;;;;;4.13;0.98;;;;;;;;;;5032293;28;20408;-67
2021/06/24 04:37:37;;;;;;;2.22;0.90;;;;;;;;;;5034274;28;20332;-72
2021/06/24 04:40:03;;;;;;;1.17;0.85;;;;;;;;;;5028890;28;20524;-73
2021/06/24 04:42:29;;;;;;;2.40;1.10;;;;;;;;;;5032717;28;20166;-73
2021/06/24 04:44:54;;;;;;;1.60;0.73;;;;;;;;;;5032457;28;20084;-73
2021/06/24 04:47:19;;;;;;;1.10;0.80;;;;;;;;;;5040482;28;20032;-73
2021/06/24 04:49:45;;;;;;;2.00;0.90;;;;;;;;;;5029823;28;20092;-73
2021/06/24 04:52:10;;;;;;;1.23;0.98;;;;;;;;;;5027090;28;20092;-72
2021/06/24 04:54:35;;;;;;;1.55;0.80;;;;;;;;;;5034430;28;20123;-72
2021/06/24 04:57:00;;;;;;;1.77;1.00;;;;;;;;;;5047475;28;20083;-72
2021/06/24 04:59:26;;;;;;;1.33;0.95;;;;;;;;;;5041382;28;20025;-73
2021/06/24 05:01:51;;;;;;;1.17;0.70;;;;;;;;;;5029993;28;20025;-68
2021/06/24 05:04:17;;;;;;;1.08;0.80;;;;;;;;;;5028732;28;20852;-67
2021/06/24 05:06:42;;;;;;;2.25;0.77;;;;;;;;;;5029103;28;20025;-68
2021/06/24 05:09:08;;;;;;;1.73;0.75;;;;;;;;;;5026426;28;20088;-68
2021/06/24 05:11:33;;;;;;;1.17;0.82;;;;;;;;;;5033612;28;20026;-69
2021/06/24 05:13:58;;;;;;;4.13;0.90;;;;;;;;;;5030940;28;20033;-68
2021/06/24 05:16:23;;;;;;;0.85;0.60;;;;;;;;;;5037898;28;20024;-68
2021/06/24 05:18:49;;;;;;;1.10;0.70;;;;;;;;;;5045665;28;20361;-70
2021/06/24 05:21:14;;;;;;;1.02;0.60;;;;;;;;;;5050655;28;20053;-70
2021/06/24 05:23:42;;;;;;;0.68;0.65;;;;;;;;;;5038213;28;20025;-70
2021/06/24 05:26:07;;;;;;;1.23;0.80;;;;;;;;;;5040613;28;20078;-69
2021/06/24 05:28:32;;;;;;;2.23;0.80;;;;;;;;;;5050724;28;20572;-70
2021/06/24 05:30:57;;;;;;;0.83;0.63;;;;;;;;;;5029742;28;20284;-71
2021/06/24 05:33:22;;;;;;;1.30;0.80;;;;;;;;;;5032927;28;20288;-70
2021/06/24 05:35:48;;;;;;;1.33;0.90;;;;;;;;;;5029724;28;20268;-69
2021/06/24 05:38:15;;;;;;;0.70;0.70;;;;;;;;;;5036719;28;20033;-69
2021/06/24 05:40:41;;;;;;;1.23;0.80;;;;;;;;;;5022503;28;20075;-69
2021/06/24 05:43:06;;;;;;;1.70;0.70;;;;;;;;;;5032324;28;20037;-69
2021/06/24 05:45:33;;;;;;;1.48;0.65;;;;;;;;;;5029483;28;20063;-69
2021/06/24 05:47:58;;;;;;;1.13;0.68;;;;;;;;;;5034070;28;20033;-68
2021/06/24 05:50:24;;;;;;;2.47;0.77;;;;;;;;;;5039737;28;20020;-70
2021/06/24 05:52:49;;;;;;;2.13;0.70;;;;;;;;;;5040771;28;20137;-67
2021/06/24 05:55:15;;;;;;;1.73;0.60;;;;;;;;;;5029296;28;20061;-69
2021/06/24 05:57:42;;;;;;;0.75;0.60;;;;;;;;;;5039558;28;20411;-69
2021/06/24 06:00:08;;;;;;;1.63;0.50;;;;;;;;;;5035459;28;20090;-69
2021/06/24 06:02:33;;;;;;;1.17;0.75;;;;;;;;;;5044653;28;20037;-68
2021/06/24 06:04:58;;;;;;;1.57;0.90;;;;;;;;;;5039681;28;20475;-69
2021/06/24 06:07:23;;;;;;;1.80;0.87;;;;;;;;;;5036872;28;20265;-69
2021/06/24 06:09:48;;;;;;;1.23;0.60;;;;;;;;;;5030705;28;20149;-69
2021/06/24 06:12:14;;;;;;;1.67;0.70;;;;;;;;;;5032021;28;20473;-69
2021/06/24 06:14:39;;;;;;;1.30;0.90;;;;;;;;;;5030130;28;20367;-70
2021/06/24 06:17:04;;;;;;;1.77;0.80;;;;;;;;;;5030222;28;20021;-70
2021/06/24 06:19:29;;;;;;;0.83;0.47;;;;;;;;;;5030269;28;20351;-70
2021/06/24 06:21:54;;;;;;;0.70;0.57;;;;;;;;;;5032675;28;20091;-70
2021/06/24 06:24:20;;;;;;;0.60;0.50;;;;;;;;;;5036872;28;20291;-70
2021/06/24 06:26:46;;;;;;;0.57;0.50;;;;;;;;;;5034317;28;20024;-70
2021/06/24 06:29:11;;;;;;;2.83;0.73;;;;;;;;;;5035591;28;20029;-70
2021/06/24 06:31:38;;;;;;;1.48;0.77;;;;;;;;;;5028776;28;20043;-70
2021/06/24 06:34:03;;;;;;;0.85;0.60;;;;;;;;;;5031643;28;20025;-71
2021/06/24 06:36:29;;;;;;;0.97;0.60;;;;;;;;;;5029114;28;20025;-69
2021/06/24 06:38:54;;;;;;;4.57;0.70;;;;;;;;;;5030665;28;20646;-70
2021/06/24 06:41:19;;;;;;;1.05;0.60;;;;;;;;;;5032691;28;20045;-70
2021/06/24 06:43:45;;;;;;;5.85;1.00;;;;;;;;;;5038117;28;20026;-69
2021/06/24 06:46:10;;;;;;;3.15;0.98;;;;;;;;;;5033982;28;20056;-70
2021/06/24 06:48:35;;;;;;;2.47;0.90;;;;;;;;;;5035031;28;20018;-69
2021/06/24 06:51:00;;;;;;;1.15;0.82;;;;;;;;;;5036880;28;20307;-70
2021/06/24 06:53:26;;;;;;;1.25;0.80;;;;;;;;;;5028379;28;20516;-70
2021/06/24 06:55:51;;;;;;;2.17;1.10;;;;;;;;;;5031292;28;20025;-69
2021/06/24 06:58:16;;;;;;;2.00;1.10;;;;;;;;;;5030573;28;20345;-70
2021/06/24 07:00:41;;;;;;;3.47;1.10;;;;;;;;;;5033747;28;20268;-71
2021/06/24 07:03:06;;;;;;;2.15;1.02;;;;;;;;;;5028252;28;20541;-71
2021/06/24 07:05:32;;;;;;;1.40;1.10;;;;;;;;;;5029502;28;20385;-70
2021/06/24 07:07:57;;;;;;;3.45;1.15;;;;;;;;;;5029261;28;20029;-71
2021/06/24 07:10:23;;;;;;;4.93;1.52;;;;;;;;;;5039553;28;20056;-70
2021/06/24 07:12:48;;;;;;;3.45;1.38;;;;;;;;;;5033258;28;20076;-69
2021/06/24 07:15:14;;;;;;;2.08;1.30;;;;;;;;;;5037139;28;20033;-69
2021/06/24 07:17:39;;;;;;;3.25;1.45;;;;;;;;;;5049013;28;20100;-70
2021/06/24 07:20:06;;;;;;;1.77;1.10;;;;;;;;;;5044189;28;20456;-71
2021/06/24 07:22:31;;;;;;;2.03;1.20;;;;;;;;;;5044126;28;20018;-70
2021/06/24 07:24:56;;;;;;;2.10;1.00;;;;;;;;;;5048448;28;20036;-71
2021/06/24 07:27:22;;;;;;;1.97;0.93;;;;;;;;;;5033393;28;20016;-69
2021/06/24 07:29:47;;;;;;;1.23;1.00;;;;;;;;;;5032554;28;20284;-70
2021/06/24 07:32:12;;;;;;;1.20;0.90;;;;;;;;;;5026612;28;20397;-68
2021/06/24 07:34:37;;;;;;;1.27;0.80;;;;;;;;;;5035141;28;20296;-68
2021/06/24 07:37:02;;;;;;;2.00;0.85;;;;;;;;;;5028697;28;20276;-69
2021/06/24 07:39:28;;;;;;;1.73;1.00;;;;;;;;;;5031369;28;20060;-69
2021/06/24 07:41:53;;;;;;;1.40;1.00;;;;;;;;;;5039915;28;20053;-70
2021/06/24 07:44:18;;;;;;;1.30;1.03;;;;;;;;;;5035883;28;20103;-70
2021/06/24 07:46:44;;;;;;;0.88;0.70;;;;;;;;;;5028425;28;20387;-69
2021/06/24 07:49:10;;;;;;;1.23;0.90;;;;;;;;;;5044411;28;20419;-70
2021/06/24 07:51:35;;;;;;;1.63;1.10;;;;;;;;;;5037204;28;20087;-70
2021/06/24 07:54:00;;;;;;;1.23;0.77;;;;;;;;;;5029478;28;20299;-69
2021/06/24 07:56:25;;;;;;;2.28;1.00;;;;;;;;;;5042036;28;21654;-69
2021/06/24 07:58:52;;;;;;;0.90;0.80;;;;;;;;;;5038927;28;20053;-68
2021/06/24 08:01:18;;;;;;;2.95;1.00;;;;;;;;;;5034466;28;20037;-70
2021/06/24 08:03:43;;;;;;;1.95;1.10;;;;;;;;;;5028993;28;20543;-69
2021/06/24 08:06:08;;;;;;;1.23;0.83;;;;;;;;;;5028023;28;20372;-69
2021/06/24 08:08:33;;;;;;;1.60;1.00;;;;;;;;;;5032425;28;20364;-70
2021/06/24 08:10:59;;;;;;;1.38;0.98;;;;;;;;;;5032161;28;20488;-69
2021/06/24 08:13:24;;;;;;;3.80;1.13;;;;;;;;;;5031089;28;20028;-69
2021/06/24 08:15:50;;;;;;;1.45;1.00;;;;;;;;;;5045933;28;20027;-68
2021/06/24 08:18:16;;;;;;;1.95;1.00;;;;;;;;;;5031858;28;20025;-69
2021/06/24 08:20:44;;;;;;;1.55;1.10;;;;;;;;;;5030957;28;20097;-69
2021/06/24 08:23:09;;;;;;;2.05;1.13;;;;;;;;;;5036861;28;20822;-70
2021/06/24 08:25:34;;;;;;;3.92;1.27;;;;;;;;;;5036894;28;20025;-69
2021/06/24 08:27:59;;;;;;;1.92;0.80;;;;;;;;;;5036439;28;20086;-69
2021/06/24 08:30:25;;;;;;;2.35;1.15;;;;;;;;;;5036820;28;20036;-68
2021/06/24 08:32:50;;;;;;;1.83;1.10;;;;;;;;;;5026924;28;20026;-69
2021/06/24 08:35:16;;;;;;;1.60;1.10;;;;;;;;;;5026799;28;20087;-70
2021/06/24 08:37:42;;;;;;;1.35;1.05;;;;;;;;;;5038544;28;20100;-70
2021/06/24 08:40:08;;;;;;;2.35;1.10;;;;;;;;;;5036657;28;20440;-69
2021/06/24 08:42:34;;;;;;;3.75;1.20;;;;;;;;;;5035988;28;20195;-69
2021/06/24 08:45:01;;;;;;;1.98;1.05;;;;;;;;;;5041247;28;20476;-69
2021/06/24 08:47:30;;;;;;;1.50;1.10;;;;;;;;;;5043121;28;20300;-69
2021/06/24 08:50:00;;;;;;;2.60;1.27;;;;;;;;;;5043568;28;20025;-69
2021/06/24 08:52:25;;;;;;;1.98;1.40;;;;;;;;;;5030772;28;20468;-70
2021/06/24 08:54:50;;;;;;;1.98;1.15;;;;;;;;;;5030839;28;20490;-69
2021/06/24 08:57:16;;;;;;;3.10;1.42;;;;;;;;;;5035490;28;20094;-69
2021/06/24 08:59:42;;;;;;;1.67;1.10;;;;;;;;;;5035843;28;20029;-70
2021/06/24 09:02:11;;;;;;;1.60;0.90;;;;;;;;;;5031844;28;20071;-70
2021/06/24 09:04:39;;;;;;;2.97;1.40;;;;;;;;;;5041249;28;20071;-69
2021/06/24 09:07:09;;;;;;;2.97;1.30;;;;;;;;;;5041016;28;20014;-69
2021/06/24 09:09:36;;;;;;;2.35;1.25;;;;;;;;;;5040608;28;20025;-70
2021/06/24 09:12:04;;;;;;;1.48;1.15;;;;;;;;;;5044766;28;20030;-69
2021/06/24 09:14:37;;;;;;;2.22;1.10;;;;;;;;;;5035947;28;20535;-70
2021/06/24 09:17:02;;;;;;;1.40;1.00;;;;;;;;;;5032183;28;20052;-69
2021/06/24 09:19:27;;;;;;;1.83;1.20;;;;;;;;;;5045289;28;20021;-70
2021/06/24 09:21:56;;;;;;;2.07;1.30;;;;;;;;;;5036085;28;20451;-69
2021/06/24 09:24:34;;;;;;;2.38;1.20;;;;;;;;;;5037076;28;20300;-69
2021/06/24 09:27:01;;;;;;;1.77;1.20;;;;;;;;;;5032728;28;20461;-69
2021/06/24 09:29:27;;;;;;;3.65;1.50;;;;;;;;;;5027113;28;20034;-74
2021/06/24 09:31:53;;;;;;;2.03;1.20;;;;;;;;;;5031549;28;20495;-72
2021/06/24 09:34:19;;;;;;;2.67;1.17;;;;;;;;;;5039719;28;20021;-72
2021/06/24 09:36:47;;;;;;;1.83;1.40;;;;;;;;;;5034369;28;20029;-73
2021/06/24 09:39:25;;;;;;;3.08;1.30;;;;;;;;;;5034222;28;20030;-73
2021/06/24 09:41:58;;;;;;;3.58;1.48;;;;;;;;;;5030349;28;20054;-73
2021/06/24 09:44:26;;;;;;;5.10;1.30;;;;;;;;;;5031660;28;20061;-72
2021/06/24 09:46:51;;;;;;;2.85;1.40;;;;;;;;;;5035658;28;20017;-72
2021/06/24 09:49:27;;;;;;;1.60;1.15;;;;;;;;;;5038697;28;20108;-71
2021/06/24 09:51:53;;;;;;;5.47;1.27;;;;;;;;;;5034322;28;20028;-72
2021/06/24 09:54:19;;;;;;;2.00;1.35;;;;;;;;;;5050242;28;20329;-72
2021/06/24 09:56:51;;;;;;;2.15;1.45;;;;;;;;;;5036445;28;20026;-73
2021/06/24 09:59:18;;;;;;;2.60;1.60;;;;;;;;;;5037200;28;20017;-72
2021/06/24 10:01:44;;;;;;;2.65;1.30;;;;;;;;;;5031228;28;20151;-70
2021/06/24 10:04:20;;;;;;;2.13;1.30;;;;;;;;;;5046463;28;20480;-72
2021/06/24 10:06:46;;;;;;;2.55;1.60;;;;;;;;;;5028499;28;20040;-72
2021/06/24 10:09:12;;;;;;;2.38;1.42;;;;;;;;;;5043535;28;20338;-72
2021/06/24 10:11:37;;;;;;;4.53;1.80;;;;;;;;;;5037695;28;20508;-70
2021/06/24 10:14:03;;;;;;;1.83;1.27;;;;;;;;;;5045567;28;20059;-71
2021/06/24 10:16:28;;;;;;;4.32;1.20;;;;;;;;;;5033746;28;20385;-72
2021/06/24 10:18:56;;;;;;;3.78;1.60;;;;;;;;;;5031043;28;20108;-70
2021/06/24 10:21:22;;;;;;;2.65;1.40;;;;;;;;;;5034024;28;20026;-69
2021/06/24 10:23:50;;;;;;;4.07;1.13;;;;;;;;;;5027897;28;20649;-72
2021/06/24 10:26:15;;;;;;;2.08;1.30;;;;;;;;;;5040252;28;20029;-72
2021/06/24 10:28:41;;;;;;;2.05;1.60;;;;;;;;;;5039547;28;20158;-72
2021/06/24 10:31:06;;;;;;;2.13;1.45;;;;;;;;;;5039716;28;20037;-72
2021/06/24 10:33:51;;;;;;;2.53;1.20;;;;;;;;;;5030447;28;20469;-70
2021/06/24 10:36:16;;;;;;;5.13;1.30;;;;;;;;;;5026843;28;20763;-71
2021/06/24 10:38:42;;;;;;;4.35;1.42;;;;;;;;;;5029810;28;20032;-74
2021/06/24 10:41:07;;;;;;;3.38;1.67;;;;;;;;;;5035605;28;20042;-73
2021/06/24 10:43:46;;;;;;;2.58;1.63;;;;;;;;;;5036940;28;20032;-72
2021/06/24 10:46:13;;;;;;;2.42;1.48;;;;;;;;;;5038959;28;20026;-73
2021/06/24 10:48:38;;;;;;;3.88;1.40;;;;;;;;;;5034656;28;20381;-72
2021/06/24 10:51:04;;;;;;;2.20;1.30;;;;;;;;;;5037212;28;20024;-72
2021/06/24 10:53:33;;;;;;;3.05;1.80;;;;;;;;;;5030045;28;20276;-70
2021/06/24 10:55:58;;;;;;;2.90;1.65;;;;;;;;;;5028434;28;20415;-70
2021/06/24 10:58:26;;;;;;;4.13;1.52;;;;;;;;;;5040382;28;20036;-69
2021/06/24 11:00:52;;;;;;;3.08;1.33;;;;;;;;;;5043042;28;20021;-70
2021/06/24 11:03:26;;;;;;;2.05;1.25;;;;;;;;;;5021389;28;20083;-66
2021/06/24 11:05:52;;;;;;;9.13;1.45;;;;;;;;;;5030868;28;20025;-67
2021/06/24 11:08:18;;;;;;;2.22;1.20;;;;;;;;;;5035900;28;20060;-68
2021/06/24 11:10:57;;;;;;;3.92;1.85;;;;;;;;;;5039034;28;20021;-67
2021/06/24 11:16:21;;;;;;;1.88;1.30;;;;;;;;;;5024913;28;20091;-73
2021/06/24 11:18:49;;;;;;;2.17;1.42;;;;;;;;;;5022340;28;20496;-65
2021/06/24 11:21:29;;;;;;;3.30;1.50;;;;;;;;;;5029423;28;20495;-65
2021/06/24 11:23:59;;;;;;;2.92;1.40;;;;;;;;;;5033506;28;20112;-65
2021/06/24 11:26:24;;;;;;;5.78;1.40;;;;;;;;;;5043294;28;20043;-65
2021/06/24 11:28:55;;;;;;;2.15;1.20;;;;;;;;;;5048464;28;20043;-65
2021/06/24 11:31:35;;;;;;;1.77;1.23;;;;;;;;;;5044369;28;20111;-65
2021/06/24 11:34:18;;;;;;;;;;;;;;;;;;5031452;28;20027;-65
2021/06/24 11:36:49;;;;;;;2.90;1.70;;;;;;;;;;5039023;28;20000;-66
2021/06/24 11:39:26;;;;;;;1.67;1.20;;;;;;;;;;5048858;28;20067;-64
2021/06/24 11:41:56;;;;;;;3.08;1.40;;;;;;;;;;5039659;28;20060;-65
2021/06/24 11:44:25;;;;;;;2.20;1.50;;;;;;;;;;5030800;28;20072;-64
2021/06/24 11:46:55;;;;;;;4.25;1.60;;;;;;;;;;5034337;28;20059;-65
2021/06/24 12:00:23;;;;;;;1.92;1.40;;;;;;;;;;5048041;28;20095;-65
2021/06/24 12:03:23;;;;;;;2.13;1.52;;;;;;;;;;5039694;28;20087;-66
2021/06/24 12:05:49;;;;;;;3.23;1.90;;;;;;;;;;5031415;28;20009;-66
2021/06/24 12:08:25;;;;;;;2.45;1.60;;;;;;;;;;5033020;28;20279;-66
2021/06/24 12:11:02;;;;;;;2.25;1.60;;;;;;;;;;5027745;28;20499;-67
2021/06/24 12:13:28;;;;;;;3.83;1.52;;;;;;;;;;5028107;28;20025;-67
2021/06/24 12:15:53;;;;;;;2.17;1.52;;;;;;;;;;5037084;28;20025;-66
2021/06/24 12:18:30;;;;;;;1.83;1.40;;;;;;;;;;5032475;28;20083;-66
2021/06/24 12:21:05;;;;;;;3.47;2.03;;;;;;;;;;5036767;28;20468;-66
2021/06/24 12:23:39;;;;;;;1.90;1.33;;;;;;;;;;5032511;28;20056;-68
2021/06/24 12:26:04;;;;;;;3.50;1.77;;;;;;;;;;5032907;28;20505;-66
2021/06/24 12:28:30;;;;;;;4.28;2.38;;;;;;;;;;5034135;28;20078;-67
2021/06/24 12:30:56;;;;;;;2.78;1.83;;;;;;;;;;5033578;28;20080;-67
2021/06/24 12:33:21;;;;;;;2.03;1.80;;;;;;;;;;5033275;28;20029;-67
2021/06/24 12:35:47;;;;;;;2.28;1.70;;;;;;;;;;5044610;28;20753;-67
2021/06/24 12:38:14;;;;;;;2.90;1.83;;;;;;;;;;5049633;28;20055;-67
2021/06/24 12:40:44;;;;;;;2.47;1.90;;;;;;;;;;5031195;28;20075;-67
2021/06/24 12:43:15;;;;;;;3.08;1.80;;;;;;;;;;5033430;28;20025;-69
2021/06/24 12:45:40;;;;;;;1.63;1.40;;;;;;;;;;5037183;28;20108;-66
2021/06/24 12:48:22;;;;;;;3.35;2.05;;;;;;;;;;5032711;28;20575;-67
2021/06/24 12:50:47;;;;;;;2.38;1.90;;;;;;;;;;5025835;28;20022;-68
2021/06/24 12:53:14;;;;;;;3.37;1.87;;;;;;;;;;5032996;28;20022;-67
2021/06/24 12:55:42;;;;;;;2.88;1.80;;;;;;;;;;5028733;28;20500;-68
2021/06/24 12:58:08;;;;;;;3.95;1.75;;;;;;;;;;5027762;28;20033;-67
2021/06/24 13:00:34;;;;;;;2.55;2.08;;;;;;;;;;5034922;28;20088;-68
2021/06/24 13:03:00;;;;;;;9.50;2.40;;;;;;;;;;5030245;28;20088;-67
2021/06/24 13:05:26;;;;;;;2.83;2.08;;;;;;;;;;5030275;28;20425;-67
2021/06/24 13:07:56;;;;;;;3.40;2.25;;;;;;;;;;5036616;28;20018;-66
2021/06/24 13:10:21;;;;;;;3.15;1.70;;;;;;;;;;5020814;28;20077;-67
2021/06/24 13:12:47;;;;;;;2.47;1.77;;;;;;;;;;5033297;28;20065;-68
2021/06/24 13:15:28;;;;;;;3.78;1.80;;;;;;;;;;5024171;28;20264;-67
2021/06/24 13:17:56;;;;;;;3.58;2.13;;;;;;;;;;5027882;28;20459;-67
2021/06/24 13:20:21;;;;;;;3.75;1.98;;;;;;;;;;5037260;28;20025;-68
2021/06/24 13:22:46;;;;;;;3.43;2.20;;;;;;;;;;5039314;28;20108;-69
2021/06/24 13:25:18;;;;;;;3.03;1.90;;;;;;;;;;5047759;28;20770;-69
2021/06/24 13:27:43;;;;;;;3.92;1.70;;;;;;;;;;5030065;28;20251;-66
2021/06/24 13:30:15;;;;;;;2.47;1.73;;;;;;;;;;5027480;28;20365;-68
2021/06/24 13:32:45;;;;;;;3.00;2.15;;;;;;;;;;5026252;28;20268;-68
2021/06/24 13:35:10;;;;;;;2.45;1.85;;;;;;;;;;5032165;28;20417;-69
2021/06/24 13:37:46;;;;;;;2.00;1.60;;;;;;;;;;5044849;28;20075;-67
2021/06/24 13:40:19;;;;;;;2.90;1.70;;;;;;;;;;5039304;28;20318;-68
2021/06/24 13:42:51;;;;;;;3.10;1.60;;;;;;;;;;5037854;28;20110;-68
2021/06/24 13:45:17;;;;;;;1.83;1.45;;;;;;;;;;5037063;28;20060;-67
2021/06/24 13:47:42;;;;;;;2.45;1.40;;;;;;;;;;5041676;28;20124;-67
2021/06/24 13:50:07;;;;;;;3.00;1.40;;;;;;;;;;5033217;28;20174;-67
2021/06/24 13:52:32;;;;;;;2.05;1.80;;;;;;;;;;5031454;28;20794;-66
2021/06/24 13:54:59;;;;;;;2.97;1.77;;;;;;;;;;5037111;28;20553;-68
2021/06/24 13:57:24;;;;;;;2.00;1.50;;;;;;;;;;5033918;28;20018;-67
2021/06/24 13:59:50;;;;;;;2.28;1.17;;;;;;;;;;5043211;28;20025;-67
2021/06/24 14:02:15;;;;;;;1.60;1.30;;;;;;;;;;5036984;28;20416;-66
2021/06/24 14:04:40;;;;;;;1.75;1.40;;;;;;;;;;5042629;28;20271;-67
2021/06/24 14:07:05;;;;;;;2.70;1.20;;;;;;;;;;5043824;28;20025;-67
2021/06/24 14:09:30;;;;;;;2.35;1.20;;;;;;;;;;5036685;28;20750;-67
2021/06/24 14:11:56;;;;;;;2.43;1.53;;;;;;;;;;5037985;28;20033;-67
2021/06/24 14:14:21;;;;;;;3.40;1.27;;;;;;;;;;5041641;28;20274;-67
2021/06/24 14:16:46;;;;;;;1.50;1.25;;;;;;;;;;5042364;28;20276;-67
2021/06/24 14:19:11;;;;;;;3.53;1.48;;;;;;;;;;5045684;28;20058;-67
2021/06/24 14:21:38;;;;;;;2.13;1.50;;;;;;;;;;5033364;28;20464;-65
2021/06/24 14:24:03;;;;;;;1.70;1.30;;;;;;;;;;5033180;28;20651;-65
2021/06/24 14:26:30;;;;;;;2.00;1.50;;;;;;;;;;5040097;28;20019;-64
2021/06/24 14:28:55;;;;;;;2.25;1.10;;;;;;;;;;5033503;28;20469;-65
2021/06/24 14:31:21;;;;;;;1.90;1.50;;;;;;;;;;5039041;28;20071;-64
2021/06/24 14:33:46;;;;;;;3.05;1.40;;;;;;;;;;5036896;28;20064;-65
2021/06/24 14:36:12;;;;;;;1.50;1.30;;;;;;;;;;5048750;28;20021;-66
2021/06/24 14:38:38;;;;;;;1.77;1.33;;;;;;;;;;5036513;28;20376;-65
2021/06/24 14:41:04;;;;;;;1.52;1.23;;;;;;;;;;5031439;28;20547;-65
2021/06/24 14:43:29;;;;;;;2.30;1.80;;;;;;;;;;5035574;28;20041;-64
2021/06/24 14:45:55;;;;;;;2.10;1.80;;;;;;;;;;5029558;28;20029;-65
2021/06/24 14:48:21;;;;;;;3.05;1.42;;;;;;;;;;5030985;28;20029;-65
2021/06/24 14:50:46;;;;;;;1.60;1.50;;;;;;;;;;5033574;28;20384;-65
2021/06/24 14:53:12;;;;;;;2.00;1.60;;;;;;;;;;5030416;28;20021;-65